Butternut Basin, Massachusetts
Current Conditions -  °F | °C
As of 1:54 AM on Wednesday 22 Oct 2014 (Local Time) from KPSF Reporting Station
Overcast Overcast  
Wind Chill: 50°   Ceiling: 1000
Heat Index: 50°   Visibility: 10mi
Dew Point: 47°   Wind: 8mph
Humidity: 89%   Direction: 70°ENE
Pressure: 29.97"   Gusts: NA
Location:  42.19°N, 73.31°W
Report Text: KPSF 220554Z AUTO 07007KT 10SM OVC010 10/08 A2997 RMK AO2 SLP141 T01000083 10100 20094 56003
Loading
Personal Weather Stations






























Interactive Weather Map New forecast layout! Learn more

10-Day Weather Forecast

Advertisements
Track Severe Weather on mobile